ADDS METAR Data INFO
IDs: Format: Raw Decoded Include TAF

Data at: 1718 UTC 23 Oct 2017

KRAL 231653Z 14004KT 10SM CLR 31/02 A3013 RMK AO2 SLP187 T03110022
KRAL 231553Z 05004KT 10SM CLR 26/02 A3014 RMK AO2 SLP190 T02560022
KRAL 231453Z 09005KT 10SM CLR 24/01 A3012 RMK AO2 SLP184 T02390006 53009
KRAL 231353Z 09006KT 10SM CLR 21/02 A3010 RMK AO2 SLP177 T02060022
KRAL 231253Z AUTO 07003KT 10SM CLR 18/02 A3010 RMK AO2 SLP176 T01830017
KRAL 231153Z AUTO 07006KT 10SM CLR 18/02 A3009 RMK AO2 SLP174 T01830022 10233 20178 55004
KRAL 231053Z AUTO 06004KT 10SM CLR 19/01 A3009 RMK AO2 SLP173 T01940011
KRAL 230953Z AUTO 06006KT 10SM CLR 19/02 A3010 RMK AO2 SLP176 T01890017
KRAL 230853Z AUTO 08006KT 10SM CLR 19/03 A3011 RMK AO2 SLP178 T01940028 56002
KRAL 230753Z AUTO 05005KT 10SM CLR 22/01 A3011 RMK AO2 SLP178 T02170011 403440144
KRAL 230653Z AUTO 07004KT 10SM CLR 23/01 A3011 RMK AO2 SLP177 T02280011
KRAL 230553Z AUTO 12004KT 10SM CLR 23/02 A3011 RMK AO2 SLP180 T02280017 10333 20228 51006
KRAL 230453Z AUTO 09003KT 10SM CLR 26/01 A3011 RMK AO2 SLP180 T02610006
KRAL 230353Z AUTO 07005KT 10SM CLR 27/M01 A3010 RMK AO2 SLP178 T02671006
KRAL 230253Z 08003KT 10SM CLR 28/M01 A3009 RMK AO2 SLP176 T02781011 53009
KRAL 230153Z 04006KT 10SM CLR 30/M02 A3008 RMK AO2 SLP169 T03001022
KRAL 230053Z VRB06KT 10SM CLR 32/M02 A3007 RMK AO2 SLP165 T03171022
KRAL 222353Z 03008G14KT 10SM CLR 33/M03 A3007 RMK AO2 SLP165 T03331028 10344 20306 56010
KRAL 222253Z 02007G16KT 10SM CLR 34/M02 A3007 RMK AO2 SLP166 T03441022
KRAL 222153Z 01009G15KT 10SM CLR 34/M02 A3008 RMK AO2 SLP168 T03441022
KRAL 222053Z 02008G17KT 350V060 10SM CLR 33/M02 A3010 RMK AO2 SLP175 T03331022 58018
KRAL 221953Z 03009KT 10SM CLR 33/M03 A3012 RMK AO2 SLP183 T03331028
KRAL 221853Z 03011G18KT 10SM CLR 32/M03 A3014 RMK AO2 SLP190 T03171033
KRAL 221753Z 04007G17KT 10SM CLR 31/M03 A3015 RMK AO2 SLP193 T03061033 10306 20144 50005
KRAL 221653Z 07006KT 10SM CLR 27/M02 A3015 RMK AO2 SLP195 T02721017
KRAL 221553Z 04003KT 10SM CLR 20/01 A3015 RMK AO2 SLP197 T02000006
KRAL 221453Z 05005KT 10SM CLR 17/00 A3014 RMK AO2 SLP191 T01670000 53006
KRAL 221353Z 06005KT 10SM CLR 15/M01 A3012 RMK AO2 SLP187 T01501006
KRAL 221253Z AUTO 04007KT 10SM CLR 15/M01 A3012 RMK AO2 SLP186 T01501006
KRAL 221153Z AUTO 06006KT 10SM CLR 16/00 A3012 RMK AO2 SLP184 T01560000 10200 20156 55005
KRAL 221053Z AUTO 06007KT 10SM CLR 18/M02 A3011 RMK AO2 SLP181 T01781017
KRAL 220953Z AUTO 06006KT 10SM CLR 16/00 A3012 RMK AO2 SLP185 T01610000
KRAL 220853Z AUTO 08006KT 10SM CLR 16/00 A3013 RMK AO2 SLP189 T01610000 51007
KRAL 220753Z AUTO 09004KT 10SM CLR 18/M01 A3013 RMK AO2 SLP187 T01781011 402940117
KRAL 220653Z AUTO 05005KT 10SM CLR 20/M01 A3012 RMK AO2 SLP184 T02001011
KRAL 220553Z AUTO 12003KT 10SM CLR 20/01 A3011 RMK AO2 SLP182 T02000006 10283 20189 51012